Time;durP1;ratioP1;P1;durP2;ratioP2;P2;SDS_P1;SDS_P2;PMS_P1;PMS_P2;Temp;Humidity;BMP_temperature;BMP_pressure;BME280_temperature;BME280_humidity;BME280_pressure;Samples;Min_cycle;Max_cycle;Signal;HPM_P1;HPM_P2
2021/12/30 00:02:17;;;;;;;56.25;24.98;;;4.40;99.90;;;;;;5022152;28;20018;-82
2021/12/30 00:04:43;;;;;;;48.25;21.70;;;4.40;99.90;;;;;;5022744;28;20022;-81
2021/12/30 00:07:09;;;;;;;45.55;21.02;;;4.40;99.90;;;;;;5022535;28;20034;-82
2021/12/30 00:09:37;;;;;;;43.53;21.23;;;4.40;99.90;;;;;;5021482;28;20038;-82
2021/12/30 00:12:04;;;;;;;45.97;22.30;;;4.40;99.90;;;;;;5021314;28;20037;-82
2021/12/30 00:14:29;;;;;;;45.88;21.02;;;4.50;99.90;;;;;;5021760;28;20054;-82
2021/12/30 00:16:55;;;;;;;47.63;22.30;;;4.50;99.90;;;;;;5021615;28;20037;-83
2021/12/30 00:19:24;;;;;;;47.53;21.75;;;4.40;99.90;;;;;;5021759;28;20030;-81
2021/12/30 00:21:50;;;;;;;45.40;20.20;;;4.40;99.90;;;;;;5020990;28;20069;-83
2021/12/30 00:24:16;;;;;;;45.95;20.95;;;4.40;99.90;;;;;;5021679;28;20014;-82
2021/12/30 00:26:42;;;;;;;41.53;20.88;;;4.50;99.90;;;;;;5020716;28;20041;-83
2021/12/30 00:29:08;;;;;;;43.97;20.75;;;4.40;99.90;;;;;;5021066;28;20014;-83
2021/12/30 00:31:34;;;;;;;47.20;22.00;;;4.50;99.90;;;;;;5011524;28;20023;-80
2021/12/30 00:34:00;;;;;;;42.53;20.90;;;4.40;99.90;;;;;;4998928;28;20038;-82
2021/12/30 00:36:26;;;;;;;44.28;19.88;;;4.40;99.90;;;;;;5012075;28;20017;-83
2021/12/30 00:38:53;;;;;;;41.83;19.63;;;4.40;99.90;;;;;;5019345;28;20034;-84
2021/12/30 00:41:19;;;;;;;39.70;19.17;;;4.50;99.90;;;;;;5007980;28;20429;-81
2021/12/30 00:43:47;;;;;;;36.78;18.77;;;4.40;99.90;;;;;;5016108;28;20045;-82
2021/12/30 00:46:13;;;;;;;36.38;18.08;;;4.40;99.90;;;;;;5011467;28;20514;-82
2021/12/30 00:48:39;;;;;;;39.15;18.77;;;4.40;99.90;;;;;;4994425;28;20050;-82
2021/12/30 00:51:06;;;;;;;37.50;17.98;;;4.40;99.90;;;;;;5005546;28;20037;-82
2021/12/30 00:53:32;;;;;;;35.38;18.05;;;4.30;99.90;;;;;;5004718;28;20444;-83
2021/12/30 00:56:01;;;;;;;36.22;19.35;;;4.20;99.90;;;;;;5002893;28;20018;-84
2021/12/30 00:58:27;;;;;;;31.75;16.40;;;4.20;99.90;;;;;;5004417;28;20390;-84
2021/12/30 01:00:54;;;;;;;34.33;18.27;;;4.20;99.90;;;;;;5004313;28;20023;-83
2021/12/30 01:03:21;;;;;;;31.88;16.80;;;4.30;99.90;;;;;;5003233;28;20558;-83
2021/12/30 01:05:47;;;;;;;36.72;17.00;;;4.40;99.90;;;;;;5003660;28;20501;-82
2021/12/30 01:08:13;;;;;;;38.40;16.75;;;4.40;99.90;;;;;;5003228;28;20038;-82
2021/12/30 01:10:39;;;;;;;34.75;17.30;;;4.40;99.90;;;;;;5004571;28;20498;-81
2021/12/30 01:13:14;;;;;;;33.53;16.15;;;4.40;99.90;;;;;;5005828;28;20088;-84
2021/12/30 01:15:59;;;;;;;39.47;17.70;;;4.50;99.90;;;;;;5003398;28;20030;-85
2021/12/30 01:21:21;;;;;;;31.77;17.35;;;4.50;99.90;;;;;;5002803;28;20030;-85
2021/12/30 01:23:47;;;;;;;39.97;18.20;;;4.50;99.90;;;;;;5003295;28;20089;-81
2021/12/30 01:26:13;;;;;;;42.70;20.70;;;4.50;99.90;;;;;;5003132;28;20026;-84
2021/12/30 01:28:40;;;;;;;37.28;17.30;;;4.50;99.90;;;;;;5002893;28;20592;-85
2021/12/30 01:31:06;;;;;;;42.90;19.77;;;4.50;99.90;;;;;;5005485;28;20033;-86
2021/12/30 01:33:32;;;;;;;35.78;19.73;;;4.50;99.90;;;;;;5010958;28;20069;-84
2021/12/30 01:35:58;;;;;;;32.58;16.65;;;4.50;99.90;;;;;;5008036;28;20022;-85
2021/12/30 01:38:25;;;;;;;32.63;16.35;;;4.50;99.90;;;;;;5007431;28;20078;-83
2021/12/30 01:40:53;;;;;;;32.13;15.88;;;4.40;99.90;;;;;;5004730;28;20030;-86
2021/12/30 01:43:20;;;;;;;29.15;15.60;;;4.40;99.90;;;;;;5004067;28;20533;-86
2021/12/30 01:45:46;;;;;;;29.92;14.45;;;4.40;99.90;;;;;;5014336;28;20026;-80
2021/12/30 01:48:13;;;;;;;35.17;16.10;;;4.40;99.90;;;;;;5018914;28;20057;-81
2021/12/30 01:50:39;;;;;;;33.13;16.08;;;4.50;99.90;;;;;;5013398;28;20494;-84
2021/12/30 01:53:06;;;;;;;27.40;15.30;;;4.50;99.90;;;;;;5008435;28;20050;-80
2021/12/30 01:55:33;;;;;;;32.40;16.20;;;4.40;99.90;;;;;;5017595;28;20045;-79
2021/12/30 01:58:00;;;;;;;27.60;14.43;;;4.40;99.90;;;;;;5011664;28;20026;-83
2021/12/30 02:00:27;;;;;;;27.42;14.65;;;4.40;99.90;;;;;;5005228;28;20030;-84
2021/12/30 02:02:53;;;;;;;28.30;15.23;;;4.40;99.90;;;;;;5014048;28;20355;-82
2021/12/30 02:05:20;;;;;;;30.50;15.07;;;4.50;99.90;;;;;;5012746;28;20034;-83
2021/12/30 02:07:48;;;;;;;28.27;13.95;;;4.40;99.90;;;;;;5003608;28;20588;-83
2021/12/30 02:10:14;;;;;;;31.02;15.32;;;4.50;99.90;;;;;;5003356;28;20030;-83
2021/12/30 02:12:42;;;;;;;26.85;14.18;;;4.50;99.90;;;;;;5006609;28;20042;-82
2021/12/30 02:15:12;;;;;;;29.00;14.68;;;4.60;99.90;;;;;;5006938;28;20037;-83
2021/12/30 02:17:39;;;;;;;29.67;15.20;;;4.60;99.90;;;;;;5009855;28;20030;-82
2021/12/30 02:20:11;;;;;;;26.20;15.13;;;4.70;99.90;;;;;;5004879;28;20038;-84
2021/12/30 02:22:37;;;;;;;24.30;13.70;;;4.70;99.90;;;;;;5003175;28;20035;-83
2021/12/30 02:25:04;;;;;;;29.80;15.07;;;4.80;99.90;;;;;;5003163;28;20073;-83
2021/12/30 02:27:30;;;;;;;26.48;13.88;;;4.80;99.90;;;;;;5004732;28;20034;-85
2021/12/30 02:29:56;;;;;;;26.17;14.32;;;4.80;99.90;;;;;;4998941;28;20018;-82
2021/12/30 02:32:25;;;;;;;24.80;13.98;;;4.80;99.90;;;;;;4992341;28;20038;-86
2021/12/30 02:34:51;;;;;;;23.02;12.82;;;4.80;99.90;;;;;;4989254;28;20069;-83
2021/12/30 02:37:19;;;;;;;27.13;13.88;;;4.80;99.90;;;;;;4990548;28;20541;-85
2021/12/30 02:39:51;;;;;;;26.67;13.95;;;4.80;99.90;;;;;;4996405;28;20022;-82
2021/12/30 02:42:21;;;;;;;21.58;12.30;;;4.80;99.90;;;;;;5033503;23;20035;-84
2021/12/30 02:44:47;;;;;;;22.85;12.63;;;4.90;99.90;;;;;;5004141;28;20026;-86
2021/12/30 02:47:14;;;;;;;24.02;13.23;;;4.90;99.90;;;;;;5009250;28;20022;-85
2021/12/30 02:49:41;;;;;;;25.52;13.25;;;4.90;99.90;;;;;;5014407;28;20030;-85
2021/12/30 02:52:07;;;;;;;23.88;13.00;;;4.90;99.90;;;;;;5017879;28;20042;-85
2021/12/30 02:54:33;;;;;;;19.77;11.88;;;4.90;99.90;;;;;;5001838;28;20023;-85
2021/12/30 02:56:59;;;;;;;20.38;11.73;;;4.90;99.90;;;;;;5018766;28;20038;-85
2021/12/30 02:59:25;;;;;;;22.25;12.07;;;4.90;99.90;;;;;;5018268;28;20026;-84
2021/12/30 03:01:51;;;;;;;21.63;11.82;;;4.80;99.90;;;;;;5016154;28;20066;-84
2021/12/30 03:04:18;;;;;;;21.80;12.05;;;4.70;99.90;;;;;;5016250;28;20046;-84
2021/12/30 03:06:44;;;;;;;24.45;13.00;;;4.70;99.90;;;;;;5017266;28;20018;-85
2021/12/30 03:09:09;;;;;;;22.83;12.00;;;4.70;99.90;;;;;;5017434;28;20057;-85
2021/12/30 03:11:35;;;;;;;18.27;11.05;;;4.70;99.90;;;;;;5017144;28;20034;-84
2021/12/30 03:14:01;;;;;;;19.35;11.32;;;4.70;99.90;;;;;;5016967;28;20047;-85
2021/12/30 03:16:42;;;;;;;21.73;12.70;;;4.70;99.90;;;;;;5014926;28;20030;-85
2021/12/30 03:19:08;;;;;;;21.38;11.63;;;4.70;99.90;;;;;;5014151;28;20031;-85
2021/12/30 03:21:34;;;;;;;21.33;12.43;;;4.70;99.90;;;;;;5004788;28;20422;-85
2021/12/30 03:24:02;;;;;;;22.67;11.63;;;4.70;99.90;;;;;;5005642;28;20145;-85
2021/12/30 03:26:28;;;;;;;22.38;12.23;;;4.70;99.90;;;;;;5004083;28;20029;-85
2021/12/30 03:28:54;;;;;;;22.70;12.40;;;4.80;99.90;;;;;;5011133;28;20034;-84
2021/12/30 03:31:21;;;;;;;22.40;12.50;;;4.80;99.90;;;;;;5011549;28;20023;-84
2021/12/30 03:33:48;;;;;;;21.67;11.88;;;4.80;99.90;;;;;;5007496;28;20099;-86
2021/12/30 03:36:15;;;;;;;22.92;12.35;;;4.90;99.90;;;;;;5005369;28;20033;-84
2021/12/30 03:38:44;;;;;;;25.08;12.80;;;4.90;99.90;;;;;;4989023;28;20022;-84
2021/12/30 03:41:13;;;;;;;22.58;11.95;;;4.90;99.90;;;;;;5006540;28;20446;-84
2021/12/30 03:43:40;;;;;;;24.50;13.38;;;4.90;99.90;;;;;;5006602;28;20034;-85
2021/12/30 03:46:07;;;;;;;22.65;11.98;;;4.90;99.90;;;;;;4988817;28;20034;-85
2021/12/30 03:48:34;;;;;;;23.50;12.20;;;5.00;99.90;;;;;;5009065;28;20502;-85
2021/12/30 03:51:06;;;;;;;25.33;12.70;;;4.90;99.90;;;;;;4989944;28;20026;-85
2021/12/30 03:53:37;;;;;;;19.13;11.45;;;5.00;99.90;;;;;;5004828;28;20030;-86
2021/12/30 03:56:13;;;;;;;22.33;12.27;;;5.00;99.90;;;;;;4989486;28;20027;-85
2021/12/30 03:58:42;;;;;;;19.65;11.05;;;5.00;99.90;;;;;;5012780;28;20050;-85
2021/12/30 04:01:10;;;;;;;18.33;10.70;;;5.00;99.90;;;;;;5005055;28;20111;-85
2021/12/30 04:03:37;;;;;;;20.88;11.82;;;5.10;99.90;;;;;;5002778;28;20030;-85
2021/12/30 04:06:03;;;;;;;20.20;12.48;;;5.10;99.90;;;;;;5002964;28;20030;-84
2021/12/30 04:08:30;;;;;;;20.48;12.32;;;5.10;99.90;;;;;;5005921;28;20040;-84
2021/12/30 04:10:57;;;;;;;22.08;11.45;;;5.10;99.90;;;;;;5004142;28;20100;-84
2021/12/30 04:13:23;;;;;;;19.20;12.18;;;5.20;99.90;;;;;;5000819;28;20053;-86
2021/12/30 04:15:50;;;;;;;20.23;11.75;;;5.10;99.90;;;;;;5000039;28;20018;-86
2021/12/30 04:18:16;;;;;;;21.83;11.23;;;5.20;99.90;;;;;;5005021;28;20125;-84
2021/12/30 04:20:41;;;;;;;20.40;11.98;;;5.20;99.90;;;;;;5004192;28;20022;-85
2021/12/30 04:23:07;;;;;;;18.92;11.13;;;5.20;99.90;;;;;;4997970;28;20026;-85
2021/12/30 04:25:34;;;;;;;20.02;12.23;;;5.20;99.90;;;;;;5000074;28;20487;-85
2021/12/30 04:28:00;;;;;;;18.95;11.68;;;5.20;99.90;;;;;;5008773;28;20045;-85
2021/12/30 04:30:26;;;;;;;18.88;11.77;;;5.30;99.90;;;;;;4988237;28;20030;-84
2021/12/30 04:32:52;;;;;;;21.30;11.82;;;5.20;99.90;;;;;;5005598;28;20033;-85
2021/12/30 04:35:19;;;;;;;19.23;11.38;;;5.30;99.90;;;;;;5011652;28;20010;-83
2021/12/30 04:37:44;;;;;;;23.58;11.68;;;5.30;99.90;;;;;;5019781;28;20038;-85
2021/12/30 04:40:11;;;;;;;22.08;12.57;;;5.30;99.90;;;;;;5006780;28;20049;-86
2021/12/30 04:42:37;;;;;;;17.33;10.95;;;5.20;99.90;;;;;;5009374;28;20038;-85
2021/12/30 04:45:05;;;;;;;21.38;11.55;;;5.30;99.90;;;;;;5007550;28;20015;-83
2021/12/30 04:47:31;;;;;;;21.00;11.93;;;5.30;99.90;;;;;;5020217;28;20019;-84
2021/12/30 04:49:58;;;;;;;24.27;12.55;;;5.30;99.90;;;;;;5019677;28;20034;-86
2021/12/30 04:52:25;;;;;;;19.02;11.30;;;5.30;99.90;;;;;;5011809;28;20402;-84
2021/12/30 04:54:51;;;;;;;22.33;11.18;;;5.30;99.90;;;;;;5005405;28;20042;-85
2021/12/30 04:57:17;;;;;;;18.73;10.98;;;5.40;99.90;;;;;;5003318;28;20058;-85
2021/12/30 04:59:43;;;;;;;22.90;11.73;;;5.30;99.90;;;;;;5002986;28;20033;-85
2021/12/30 05:02:10;;;;;;;18.98;11.18;;;5.30;99.90;;;;;;5001886;28;20027;-85
2021/12/30 05:04:35;;;;;;;19.95;11.90;;;5.30;99.90;;;;;;5002979;28;20030;-85
2021/12/30 05:07:01;;;;;;;19.33;10.95;;;5.30;99.90;;;;;;5003948;28;20061;-85
2021/12/30 05:09:27;;;;;;;20.83;11.35;;;5.30;99.90;;;;;;5003593;28;20027;-86
2021/12/30 05:11:53;;;;;;;25.38;12.52;;;5.30;99.90;;;;;;5000973;28;20031;-85
2021/12/30 05:14:19;;;;;;;26.60;13.00;;;5.20;99.90;;;;;;4989236;28;20026;-84
2021/12/30 05:16:45;;;;;;;21.27;11.88;;;5.20;99.90;;;;;;5010986;28;20022;-85
2021/12/30 05:19:11;;;;;;;24.25;12.40;;;5.20;99.90;;;;;;5003901;28;20018;-85
2021/12/30 05:21:37;;;;;;;24.77;13.23;;;5.20;99.90;;;;;;5010531;28;20041;-84
2021/12/30 05:24:04;;;;;;;23.27;13.02;;;5.10;99.90;;;;;;5005209;28;20029;-86
2021/12/30 05:26:31;;;;;;;27.08;13.00;;;5.10;99.90;;;;;;5000458;28;20402;-85
2021/12/30 05:28:59;;;;;;;25.67;13.57;;;5.10;99.90;;;;;;4986610;28;20026;-85
2021/12/30 05:31:26;;;;;;;23.13;12.07;;;5.00;99.90;;;;;;5001636;28;20038;-85
2021/12/30 05:33:52;;;;;;;21.58;12.63;;;5.10;99.90;;;;;;5002010;28;20060;-85
2021/12/30 05:36:18;;;;;;;24.13;13.15;;;5.10;99.90;;;;;;5002509;28;20022;-83
2021/12/30 05:38:44;;;;;;;22.73;12.32;;;5.00;99.90;;;;;;5001537;28;20022;-84
2021/12/30 05:41:10;;;;;;;23.40;12.85;;;5.10;99.90;;;;;;5002430;28;20027;-86
2021/12/30 05:43:36;;;;;;;23.35;12.48;;;5.10;99.90;;;;;;5001548;28;20704;-86
2021/12/30 05:46:02;;;;;;;19.25;11.32;;;5.10;99.90;;;;;;5002556;28;20109;-85
2021/12/30 05:48:28;;;;;;;22.60;12.23;;;5.20;99.90;;;;;;5002594;28;20053;-85
2021/12/30 05:50:54;;;;;;;19.35;11.50;;;5.20;99.90;;;;;;5014712;28;20022;-84
2021/12/30 05:53:20;;;;;;;21.90;11.30;;;5.10;99.90;;;;;;5016523;28;20046;-85
2021/12/30 05:55:46;;;;;;;23.40;12.05;;;5.20;99.90;;;;;;5017086;28;20042;-84
2021/12/30 05:58:12;;;;;;;19.55;11.32;;;5.20;99.90;;;;;;5013700;28;20050;-85
2021/12/30 06:00:38;;;;;;;19.95;11.43;;;5.20;99.90;;;;;;5007680;28;20054;-85
2021/12/30 06:03:04;;;;;;;20.38;10.77;;;5.20;99.90;;;;;;5007550;28;20022;-85
2021/12/30 06:05:30;;;;;;;21.15;12.35;;;5.20;99.90;;;;;;5012257;28;20061;-86
2021/12/30 06:07:56;;;;;;;23.80;11.88;;;5.30;99.90;;;;;;4989321;28;20027;-86
2021/12/30 06:10:25;;;;;;;22.20;11.40;;;5.20;99.90;;;;;;5004109;28;20034;-85
2021/12/30 06:12:50;;;;;;;20.30;10.65;;;5.30;99.90;;;;;;5002274;28;20022;-85
2021/12/30 06:15:16;;;;;;;24.42;11.85;;;5.30;99.90;;;;;;5002310;28;20041;-86
2021/12/30 06:17:42;;;;;;;29.92;11.43;;;5.30;99.90;;;;;;4985556;28;20022;-84
2021/12/30 06:20:13;;;;;;;18.15;11.00;;;5.30;99.90;;;;;;5001774;28;20026;-84
2021/12/30 06:22:40;;;;;;;24.58;10.70;;;5.30;99.90;;;;;;5011866;28;20034;-84
2021/12/30 06:25:06;;;;;;;21.33;10.85;;;5.30;99.90;;;;;;5011739;28;20126;-85
2021/12/30 06:27:32;;;;;;;21.05;11.43;;;5.30;99.90;;;;;;5011955;28;20030;-84
2021/12/30 06:29:58;;;;;;;22.02;12.13;;;5.40;99.90;;;;;;5009827;28;20026;-85
2021/12/30 06:32:24;;;;;;;21.55;11.77;;;5.40;99.90;;;;;;5012435;28;20066;-86
2021/12/30 06:34:50;;;;;;;22.23;12.18;;;5.40;99.90;;;;;;5014324;28;20057;-86
2021/12/30 06:37:16;;;;;;;24.23;12.13;;;5.40;99.90;;;;;;5008590;28;20042;-84
2021/12/30 06:39:41;;;;;;;22.73;12.27;;;5.40;99.90;;;;;;5006171;28;20022;-85
2021/12/30 06:42:07;;;;;;;21.33;11.55;;;5.40;99.90;;;;;;5008060;28;20048;-84
2021/12/30 06:44:33;;;;;;;24.15;13.13;;;5.50;99.90;;;;;;5004774;28;20026;-85
2021/12/30 06:47:01;;;;;;;24.85;12.68;;;5.50;99.90;;;;;;5005997;28;20039;-85
2021/12/30 06:49:35;;;;;;;23.67;12.25;;;5.50;99.90;;;;;;5001125;28;20033;-86
2021/12/30 06:52:07;;;;;;;38.35;17.63;;;5.50;99.90;;;;;;5001914;28;20069;-86
2021/12/30 06:54:33;;;;;;;25.05;13.20;;;5.40;99.90;;;;;;5003796;28;20041;-85
2021/12/30 06:57:00;;;;;;;30.73;15.80;;;5.40;99.90;;;;;;5011265;28;20091;-85
2021/12/30 06:59:30;;;;;;;26.42;13.23;;;5.40;99.90;;;;;;5006856;28;20434;-86
2021/12/30 07:01:57;;;;;;;23.42;13.13;;;5.40;99.90;;;;;;4989011;28;20093;-85
2021/12/30 07:04:26;;;;;;;25.15;12.20;;;5.50;99.90;;;;;;5010586;28;20156;-85
2021/12/30 07:06:53;;;;;;;22.58;12.95;;;5.50;99.90;;;;;;5011152;28;20040;-84
2021/12/30 07:09:20;;;;;;;29.63;13.43;;;5.50;99.90;;;;;;5010303;28;20182;-86
2021/12/30 07:11:49;;;;;;;21.73;12.48;;;5.50;99.90;;;;;;5014056;28;20056;-85
2021/12/30 07:14:18;;;;;;;29.98;11.90;;;5.50;99.90;;;;;;5011878;28;20058;-85
2021/12/30 07:16:44;;;;;;;28.92;12.50;;;5.60;99.90;;;;;;5007435;28;20065;-83
2021/12/30 07:19:11;;;;;;;23.98;12.18;;;5.60;99.90;;;;;;5003179;28;20038;-86
2021/12/30 07:21:37;;;;;;;24.40;12.10;;;5.70;99.90;;;;;;5006875;28;20061;-86
2021/12/30 07:24:03;;;;;;;26.17;13.10;;;5.70;99.90;;;;;;5010211;28;20035;-85
2021/12/30 07:26:28;;;;;;;24.35;12.15;;;5.70;99.90;;;;;;5008424;28;20030;-85
2021/12/30 07:28:54;;;;;;;25.35;12.93;;;5.70;99.90;;;;;;5011217;28;20041;-84
2021/12/30 07:31:20;;;;;;;20.20;11.55;;;5.70;99.90;;;;;;5010813;28;20030;-85
2021/12/30 07:33:46;;;;;;;23.25;12.88;;;5.70;99.90;;;;;;5011699;28;20046;-86
2021/12/30 07:36:11;;;;;;;23.70;12.70;;;5.70;99.90;;;;;;5005252;28;20106;-86
2021/12/30 07:38:38;;;;;;;26.27;13.70;;;5.80;99.90;;;;;;5002794;28;20038;-85
2021/12/30 07:41:04;;;;;;;25.63;13.30;;;5.80;99.90;;;;;;5004890;28;20031;-85
2021/12/30 07:43:31;;;;;;;23.40;12.73;;;5.80;99.90;;;;;;5002327;28;20030;-85
2021/12/30 07:45:57;;;;;;;22.25;12.30;;;5.90;99.90;;;;;;5002678;28;20015;-86
2021/12/30 07:48:23;;;;;;;22.20;12.50;;;6.00;99.90;;;;;;5006533;28;20022;-85
2021/12/30 07:50:50;;;;;;;25.90;11.95;;;6.00;99.90;;;;;;5007430;28;20158;-85
2021/12/30 07:53:17;;;;;;;23.95;12.73;;;6.00;99.90;;;;;;5012910;28;20489;-87
2021/12/30 07:55:43;;;;;;;23.65;13.13;;;6.10;99.90;;;;;;5009467;28;20023;-86
2021/12/30 07:58:09;;;;;;;25.05;13.07;;;6.10;99.90;;;;;;5010097;28;20038;-86
2021/12/30 08:00:35;;;;;;;25.38;13.73;;;6.10;99.90;;;;;;5009101;28;20030;-87
2021/12/30 08:03:01;;;;;;;28.75;12.80;;;6.10;99.90;;;;;;5006492;28;20018;-87
2021/12/30 08:05:28;;;;;;;20.83;12.35;;;6.10;99.90;;;;;;5007530;28;20022;-86
2021/12/30 08:07:54;;;;;;;21.00;12.95;;;6.10;99.90;;;;;;5010069;28;20031;-86
2021/12/30 08:10:22;;;;;;;25.38;13.23;;;6.10;99.90;;;;;;5009500;28;20022;-85
2021/12/30 08:12:50;;;;;;;30.75;13.63;;;6.20;99.90;;;;;;5008929;28;20042;-84
2021/12/30 08:15:17;;;;;;;25.55;13.95;;;6.20;99.90;;;;;;5008395;28;20434;-84
2021/12/30 08:17:44;;;;;;;28.17;13.95;;;6.20;99.90;;;;;;5011771;28;20023;-86
2021/12/30 08:20:11;;;;;;;24.95;13.15;;;6.30;99.90;;;;;;4993426;28;20037;-84
2021/12/30 08:22:38;;;;;;;27.98;14.65;;;6.40;99.90;;;;;;5013688;28;20098;-85
2021/12/30 08:25:05;;;;;;;25.50;13.65;;;6.50;99.90;;;;;;5017822;28;20066;-86
2021/12/30 08:27:31;;;;;;;25.60;13.63;;;6.60;99.90;;;;;;5016629;28;20034;-87
2021/12/30 08:29:57;;;;;;;23.58;12.88;;;6.70;99.90;;;;;;4999848;28;20034;-84
2021/12/30 08:32:33;;;;;;;23.65;12.68;;;6.80;99.90;;;;;;5017012;28;20050;-87
2021/12/30 08:35:12;;;;;;;24.58;12.95;;;6.80;99.90;;;;;;5011159;28;20061;-85
2021/12/30 08:37:42;;;;;;;32.10;15.00;;;6.70;99.90;;;;;;5011238;28;20027;-87
2021/12/30 08:40:12;;;;;;;29.10;14.35;;;6.60;99.90;;;;;;5015971;28;20014;-86
2021/12/30 08:42:39;;;;;;;21.55;13.00;;;6.50;99.90;;;;;;5036032;23;20045;-83
2021/12/30 08:45:06;;;;;;;30.30;14.88;;;6.50;99.90;;;;;;5008607;28;20090;-84
2021/12/30 08:47:32;;;;;;;25.63;14.38;;;6.50;99.90;;;;;;5015994;28;20006;-83
2021/12/30 08:49:59;;;;;;;23.58;13.55;;;6.50;99.90;;;;;;5017706;28;20027;-85
2021/12/30 08:52:28;;;;;;;24.67;13.75;;;6.50;99.90;;;;;;5017386;28;20034;-84
2021/12/30 08:54:56;;;;;;;28.55;13.73;;;6.50;99.90;;;;;;5014311;28;20034;-86
2021/12/30 08:57:22;;;;;;;27.27;14.32;;;6.50;99.90;;;;;;5007992;28;20094;-85
2021/12/30 08:59:49;;;;;;;44.50;22.58;;;6.50;99.90;;;;;;5007405;28;20003;-84
2021/12/30 09:02:15;;;;;;;25.40;14.60;;;6.50;99.90;;;;;;5013641;28;20026;-83
2021/12/30 09:04:47;;;;;;;29.27;15.35;;;6.50;99.90;;;;;;5016360;28;20026;-84
2021/12/30 09:07:18;;;;;;;23.65;14.00;;;6.60;99.90;;;;;;5018385;28;20031;-82
2021/12/30 09:09:44;;;;;;;26.88;13.77;;;6.70;99.90;;;;;;5015055;28;20019;-81
2021/12/30 09:12:10;;;;;;;27.20;14.10;;;6.80;99.90;;;;;;5012708;28;20034;-84
2021/12/30 09:14:36;;;;;;;23.52;13.02;;;6.80;99.90;;;;;;5007314;28;20054;-82
2021/12/30 09:17:02;;;;;;;29.20;14.02;;;6.80;99.90;;;;;;5013570;28;20022;-83
2021/12/30 09:19:28;;;;;;;27.77;14.15;;;6.90;99.90;;;;;;5012297;28;20030;-83
2021/12/30 09:21:54;;;;;;;23.63;12.75;;;6.90;99.90;;;;;;5010503;28;20032;-83
2021/12/30 09:24:19;;;;;;;23.02;12.82;;;6.90;99.90;;;;;;5008879;28;20026;-86
2021/12/30 09:26:45;;;;;;;24.95;13.90;;;7.00;99.90;;;;;;5008265;28;20022;-83
2021/12/30 09:29:11;;;;;;;27.38;14.32;;;7.00;99.90;;;;;;5000626;28;20023;-84
2021/12/30 09:31:42;;;;;;;20.83;13.18;;;7.00;99.90;;;;;;4998766;28;20038;-85
2021/12/30 09:34:08;;;;;;;25.42;14.63;;;7.10;99.90;;;;;;4988010;28;20130;-83
2021/12/30 09:36:34;;;;;;;28.65;12.82;;;7.10;99.90;;;;;;4987083;28;20038;-85
2021/12/30 09:39:01;;;;;;;26.85;14.63;;;7.10;99.90;;;;;;4987096;28;20046;-84
2021/12/30 09:41:26;;;;;;;26.35;13.82;;;7.10;99.90;;;;;;5003871;28;20029;-82
2021/12/30 09:43:52;;;;;;;28.77;16.42;;;7.20;99.90;;;;;;5005242;28;20038;-85
2021/12/30 09:46:18;;;;;;;32.28;15.23;;;7.10;99.90;;;;;;4990381;28;20039;-84
2021/12/30 09:48:44;;;;;;;31.17;15.48;;;7.10;99.90;;;;;;4990889;28;20038;-83
2021/12/30 09:51:10;;;;;;;35.15;15.93;;;7.10;99.90;;;;;;5007506;28;20034;-85
2021/12/30 09:53:36;;;;;;;30.33;15.57;;;7.10;99.90;;;;;;5010250;28;20038;-84
2021/12/30 09:56:02;;;;;;;31.55;17.65;;;7.20;99.90;;;;;;5009946;28;20046;-84
2021/12/30 09:58:29;;;;;;;32.58;17.00;;;7.30;99.90;;;;;;5008854;28;20030;-84
2021/12/30 10:00:55;;;;;;;35.63;16.92;;;7.40;99.90;;;;;;5009979;28;20018;-85
2021/12/30 10:03:21;;;;;;;36.30;16.73;;;8.10;99.90;;;;;;5010652;28;20027;-82
2021/12/30 10:05:48;;;;;;;36.30;16.33;;;8.50;99.90;;;;;;5014730;28;20097;-84
2021/12/30 10:08:26;;;;;;;32.30;16.70;;;8.70;99.90;;;;;;5016725;28;20030;-84
2021/12/30 10:10:57;;;;;;;32.13;16.75;;;8.80;99.90;;;;;;5013051;28;20015;-85
2021/12/30 10:13:32;;;;;;;36.08;18.20;;;8.70;99.90;;;;;;4995285;28;20034;-85
2021/12/30 10:16:09;;;;;;;36.65;16.17;;;8.70;99.90;;;;;;5011701;28;20064;-85
2021/12/30 10:18:56;;;;;;;30.02;16.42;;;8.70;99.90;;;;;;5012595;28;20090;-85
2021/12/30 10:21:29;;;;;;;30.35;16.48;;;8.80;99.90;;;;;;5007903;28;20030;-84
2021/12/30 10:23:58;;;;;;;30.05;16.48;;;8.70;99.90;;;;;;5005563;28;20077;-84
2021/12/30 10:26:24;;;;;;;29.52;17.00;;;8.90;99.90;;;;;;5008660;28;20060;-86
2021/12/30 10:28:56;;;;;;;29.48;16.13;;;9.30;99.90;;;;;;5006538;28;20038;-84
2021/12/30 10:31:24;;;;;;;32.75;16.45;;;9.70;99.90;;;;;;5013602;28;20018;-84
2021/12/30 10:33:56;;;;;;;38.45;19.52;;;10.10;99.90;;;;;;5011265;28;20053;-86
2021/12/30 10:36:29;;;;;;;38.50;19.23;;;10.20;99.90;;;;;;5013138;28;20018;-85
2021/12/30 10:39:16;;;;;;;36.53;18.02;;;10.20;99.90;;;;;;5013706;28;20015;-85
2021/12/30 10:41:42;;;;;;;37.10;17.60;;;10.10;99.90;;;;;;4992162;28;20053;-85
2021/12/30 10:44:08;;;;;;;31.63;17.58;;;10.30;99.90;;;;;;5004570;28;20030;-85
2021/12/30 10:46:34;;;;;;;28.25;15.70;;;10.50;99.90;;;;;;5005389;28;20022;-86
2021/12/30 10:49:08;;;;;;;33.00;16.67;;;10.50;99.90;;;;;;5005163;28;20031;-85
2021/12/30 10:51:44;;;;;;;30.70;17.67;;;10.40;99.90;;;;;;5005046;28;20474;-85
2021/12/30 10:54:22;;;;;;;30.33;16.92;;;10.30;99.90;;;;;;5006927;28;20042;-82
2021/12/30 10:56:57;;;;;;;33.50;17.55;;;10.30;99.90;;;;;;4988504;28;20046;-83
2021/12/30 10:59:24;;;;;;;28.02;16.55;;;10.30;99.90;;;;;;4989521;28;20089;-84
2021/12/30 11:02:03;;;;;;;29.60;17.08;;;11.00;99.90;;;;;;4987442;28;20117;-86
2021/12/30 11:04:32;;;;;;;24.30;14.80;;;12.00;99.90;;;;;;4966523;28;20042;-87
2021/12/30 11:06:58;;;;;;;26.42;14.35;;;12.70;99.90;;;;;;4982241;28;20035;-83
2021/12/30 11:09:24;;;;;;;24.00;14.13;;;13.20;99.90;;;;;;4982854;28;20019;-84
2021/12/30 11:11:58;;;;;;;28.73;14.95;;;13.10;99.90;;;;;;4981898;28;20498;-84
2021/12/30 11:14:29;;;;;;;26.35;15.20;;;13.20;99.90;;;;;;4987331;28;20035;-83
2021/12/30 11:17:01;;;;;;;22.73;13.70;;;13.10;99.90;;;;;;4985621;28;20039;-85
2021/12/30 11:19:29;;;;;;;23.27;13.05;;;12.90;99.90;;;;;;4986090;28;20126;-85
2021/12/30 11:21:58;;;;;;;24.80;14.27;;;12.70;99.90;;;;;;4987572;28;20031;-84
2021/12/30 11:24:28;;;;;;;24.48;13.50;;;12.30;99.90;;;;;;4986512;28;20023;-85
2021/12/30 11:26:56;;;;;;;26.30;13.95;;;12.10;99.90;;;;;;4985709;28;20031;-86
2021/12/30 11:29:22;;;;;;;23.25;13.80;;;12.10;99.90;;;;;;4985468;28;20030;-87
2021/12/30 11:31:50;;;;;;;21.95;12.60;;;13.00;99.90;;;;;;4984952;28;20007;-87
2021/12/30 11:34:18;;;;;;;20.60;12.13;;;14.60;99.90;;;;;;4984473;28;20043;-86
2021/12/30 11:36:44;;;;;;;22.65;12.63;;;15.80;99.90;;;;;;4985217;28;20027;-85
2021/12/30 11:39:20;;;;;;;18.95;11.77;;;17.20;99.90;;;;;;4986624;28;20061;-85
2021/12/30 11:41:57;;;;;;;19.83;11.93;;;18.20;99.90;;;;;;4987576;28;20101;-86
2021/12/30 11:44:32;;;;;;;21.83;13.63;;;18.30;99.90;;;;;;4988440;28;20514;-84
2021/12/30 11:47:00;;;;;;;22.67;13.35;;;17.70;99.90;;;;;;4988776;28;20023;-87
2021/12/30 11:49:57;;;;;;;23.05;13.88;;;16.90;99.90;;;;;;4994153;28;20181;-86
2021/12/30 11:52:57;;;;;;;24.45;14.05;;;16.20;99.90;;;;;;5001331;28;20065;-85
2021/12/30 11:55:50;;;;;;;24.17;13.82;;;15.70;99.90;;;;;;5000806;28;20046;-85
2021/12/30 11:58:28;;;;;;;25.63;14.48;;;15.00;99.90;;;;;;4997260;28;20030;-85
2021/12/30 12:00:57;;;;;;;25.20;14.45;;;14.70;99.90;;;;;;4987614;28;20121;-85
2021/12/30 12:03:40;;;;;;;24.75;13.82;;;14.40;99.90;;;;;;4989749;28;20018;-84
2021/12/30 12:06:27;;;;;;;24.65;14.75;;;14.30;99.90;;;;;;4996030;28;20086;-84
2021/12/30 12:08:55;;;;;;;21.50;13.85;;;14.20;99.90;;;;;;4999673;28;20026;-84
2021/12/30 12:11:26;;;;;;;29.23;15.90;;;13.80;99.90;;;;;;5007551;28;20049;-86
2021/12/30 12:13:55;;;;;;;26.58;15.77;;;13.40;99.90;;;;;;5006243;28;20057;-84
2021/12/30 12:16:46;;;;;;;27.08;13.90;;;13.40;99.90;;;;;;4996631;28;20025;-85
2021/12/30 12:19:14;;;;;;;28.23;13.77;;;13.20;99.90;;;;;;5029321;28;20026;-85
2021/12/30 12:21:49;;;;;;;27.23;14.48;;;13.30;99.90;;;;;;5007536;28;20038;-84
2021/12/30 12:24:20;;;;;;;23.00;13.95;;;13.50;99.90;;;;;;4995241;28;20034;-85
2021/12/30 12:26:47;;;;;;;24.48;14.27;;;13.80;99.90;;;;;;4985472;28;20041;-85
2021/12/30 12:29:42;;;;;;;24.65;13.88;;;13.90;99.90;;;;;;4988724;28;20037;-84
2021/12/30 12:32:11;;;;;;;22.10;12.70;;;14.00;99.90;;;;;;4984551;28;20046;-88
2021/12/30 12:34:40;;;;;;;24.95;13.93;;;13.90;99.90;;;;;;4984654;28;20270;-85
2021/12/30 12:37:32;;;;;;;23.52;14.85;;;13.80;99.90;;;;;;4984752;28;20131;-86
2021/12/30 12:40:11;;;;;;;26.92;15.55;;;13.50;99.90;;;;;;5000351;28;20030;-84
2021/12/30 12:42:43;;;;;;;24.45;14.55;;;13.40;99.90;;;;;;4990341;28;20066;-85
2021/12/30 12:45:27;;;;;;;29.50;15.00;;;13.50;99.90;;;;;;4988249;28;20112;-83